sensor_id;sensor_type;location;lat;lon;timestamp;P1;durP1;ratioP1;P2;durP2;ratioP2
4547;SDS011;2286;51.570;7.090;2023-04-29T00:00:04;0.90;;;0.90;;
4547;SDS011;2286;51.570;7.090;2023-04-29T00:02:32;0.73;;;0.73;;
4547;SDS011;2286;51.570;7.090;2023-04-29T00:05:00;0.70;;;0.70;;
4547;SDS011;2286;51.570;7.090;2023-04-29T00:07:28;1.90;;;1.80;;
4547;SDS011;2286;51.570;7.090;2023-04-29T00:09:56;0.87;;;0.87;;
4547;SDS011;2286;51.570;7.090;2023-04-29T00:12:23;0.67;;;0.67;;
4547;SDS011;2286;51.570;7.090;2023-04-29T00:14:50;0.83;;;0.83;;
4547;SDS011;2286;51.570;7.090;2023-04-29T00:17:17;1.80;;;1.27;;
4547;SDS011;2286;51.570;7.090;2023-04-29T00:19:43;2.30;;;2.10;;
4547;SDS011;2286;51.570;7.090;2023-04-29T00:22:11;1.70;;;1.37;;
4547;SDS011;2286;51.570;7.090;2023-04-29T00:24:38;0.93;;;0.90;;
4547;SDS011;2286;51.570;7.090;2023-04-29T00:27:05;0.70;;;0.70;;
4547;SDS011;2286;51.570;7.090;2023-04-29T00:29:32;0.50;;;0.50;;
4547;SDS011;2286;51.570;7.090;2023-04-29T00:31:59;3.17;;;2.97;;
4547;SDS011;2286;51.570;7.090;2023-04-29T00:34:25;3.67;;;3.37;;
4547;SDS011;2286;51.570;7.090;2023-04-29T00:36:52;0.77;;;0.77;;
4547;SDS011;2286;51.570;7.090;2023-04-29T00:39:20;1.17;;;0.93;;
4547;SDS011;2286;51.570;7.090;2023-04-29T00:41:47;2.10;;;2.00;;
4547;SDS011;2286;51.570;7.090;2023-04-29T00:44:14;3.37;;;3.23;;
4547;SDS011;2286;51.570;7.090;2023-04-29T00:46:41;1.53;;;1.43;;
4547;SDS011;2286;51.570;7.090;2023-04-29T00:49:08;1.07;;;1.07;;
4547;SDS011;2286;51.570;7.090;2023-04-29T00:51:36;2.83;;;1.70;;
4547;SDS011;2286;51.570;7.090;2023-04-29T00:54:03;1.83;;;1.73;;
4547;SDS011;2286;51.570;7.090;2023-04-29T00:56:33;0.90;;;0.90;;
4547;SDS011;2286;51.570;7.090;2023-04-29T00:59:01;2.00;;;1.90;;
4547;SDS011;2286;51.570;7.090;2023-04-29T01:01:28;7.33;;;1.83;;
4547;SDS011;2286;51.570;7.090;2023-04-29T01:03:55;1.27;;;1.27;;
4547;SDS011;2286;51.570;7.090;2023-04-29T01:06:25;2.83;;;2.57;;
4547;SDS011;2286;51.570;7.090;2023-04-29T01:09:05;2.53;;;2.37;;
4547;SDS011;2286;51.570;7.090;2023-04-29T01:11:46;3.50;;;3.30;;
4547;SDS011;2286;51.570;7.090;2023-04-29T01:14:18;3.47;;;2.80;;
4547;SDS011;2286;51.570;7.090;2023-04-29T01:16:47;3.20;;;2.73;;
4547;SDS011;2286;51.570;7.090;2023-04-29T01:19:20;2.37;;;2.27;;
4547;SDS011;2286;51.570;7.090;2023-04-29T01:22:04;2.10;;;2.00;;
4547;SDS011;2286;51.570;7.090;2023-04-29T01:24:32;5.00;;;2.20;;
4547;SDS011;2286;51.570;7.090;2023-04-29T01:27:01;1.00;;;1.00;;
4547;SDS011;2286;51.570;7.090;2023-04-29T01:29:37;1.73;;;1.63;;
4547;SDS011;2286;51.570;7.090;2023-04-29T01:32:11;2.27;;;2.17;;
4547;SDS011;2286;51.570;7.090;2023-04-29T01:34:43;9.10;;;2.47;;
4547;SDS011;2286;51.570;7.090;2023-04-29T01:37:21;1.63;;;1.37;;
4547;SDS011;2286;51.570;7.090;2023-04-29T01:39:57;0.40;;;0.40;;
4547;SDS011;2286;51.570;7.090;2023-04-29T01:42:32;2.13;;;2.00;;
4547;SDS011;2286;51.570;7.090;2023-04-29T01:45:04;1.73;;;1.63;;
4547;SDS011;2286;51.570;7.090;2023-04-29T01:47:33;0.80;;;0.80;;
4547;SDS011;2286;51.570;7.090;2023-04-29T01:50:01;2.40;;;1.50;;
4547;SDS011;2286;51.570;7.090;2023-04-29T01:52:28;1.40;;;1.30;;
4547;SDS011;2286;51.570;7.090;2023-04-29T01:54:56;1.37;;;1.27;;
4547;SDS011;2286;51.570;7.090;2023-04-29T01:57:23;1.53;;;1.43;;
4547;SDS011;2286;51.570;7.090;2023-04-29T01:59:50;49.73;;;27.60;;
4547;SDS011;2286;51.570;7.090;2023-04-29T02:02:16;75.80;;;42.17;;
4547;SDS011;2286;51.570;7.090;2023-04-29T02:04:45;78.47;;;45.37;;
4547;SDS011;2286;51.570;7.090;2023-04-29T02:07:13;83.10;;;44.27;;
4547;SDS011;2286;51.570;7.090;2023-04-29T02:09:39;79.63;;;46.07;;
4547;SDS011;2286;51.570;7.090;2023-04-29T02:12:07;78.90;;;42.80;;
4547;SDS011;2286;51.570;7.090;2023-04-29T02:14:34;74.93;;;43.67;;
4547;SDS011;2286;51.570;7.090;2023-04-29T02:17:01;81.07;;;44.50;;
4547;SDS011;2286;51.570;7.090;2023-04-29T02:19:28;82.70;;;45.70;;
4547;SDS011;2286;51.570;7.090;2023-04-29T02:21:55;64.70;;;41.60;;
4547;SDS011;2286;51.570;7.090;2023-04-29T02:24:21;68.33;;;42.50;;
4547;SDS011;2286;51.570;7.090;2023-04-29T02:26:48;70.90;;;39.87;;
4547;SDS011;2286;51.570;7.090;2023-04-29T02:29:16;71.30;;;43.17;;
4547;SDS011;2286;51.570;7.090;2023-04-29T02:31:43;73.17;;;40.87;;
4547;SDS011;2286;51.570;7.090;2023-04-29T02:34:10;72.70;;;41.90;;
4547;SDS011;2286;51.570;7.090;2023-04-29T02:36:37;74.07;;;41.17;;
4547;SDS011;2286;51.570;7.090;2023-04-29T02:39:04;78.73;;;43.23;;
4547;SDS011;2286;51.570;7.090;2023-04-29T02:41:31;72.37;;;42.97;;
4547;SDS011;2286;51.570;7.090;2023-04-29T02:43:58;72.83;;;42.13;;
4547;SDS011;2286;51.570;7.090;2023-04-29T02:46:26;69.90;;;40.83;;
4547;SDS011;2286;51.570;7.090;2023-04-29T02:48:52;56.77;;;34.23;;
4547;SDS011;2286;51.570;7.090;2023-04-29T02:51:19;62.73;;;38.20;;
4547;SDS011;2286;51.570;7.090;2023-04-29T02:53:46;63.87;;;38.37;;
4547;SDS011;2286;51.570;7.090;2023-04-29T02:56:13;57.97;;;35.70;;
4547;SDS011;2286;51.570;7.090;2023-04-29T02:58:39;61.17;;;37.30;;
4547;SDS011;2286;51.570;7.090;2023-04-29T03:01:06;60.53;;;38.40;;
4547;SDS011;2286;51.570;7.090;2023-04-29T03:03:34;64.10;;;37.27;;
4547;SDS011;2286;51.570;7.090;2023-04-29T03:06:01;62.73;;;37.10;;
4547;SDS011;2286;51.570;7.090;2023-04-29T03:08:28;57.90;;;36.63;;
4547;SDS011;2286;51.570;7.090;2023-04-29T03:10:55;61.17;;;36.70;;
4547;SDS011;2286;51.570;7.090;2023-04-29T03:13:22;63.13;;;36.67;;
4547;SDS011;2286;51.570;7.090;2023-04-29T03:15:49;64.57;;;39.07;;
4547;SDS011;2286;51.570;7.090;2023-04-29T03:18:16;61.00;;;38.73;;
4547;SDS011;2286;51.570;7.090;2023-04-29T03:20:44;59.83;;;38.07;;
4547;SDS011;2286;51.570;7.090;2023-04-29T03:23:11;61.37;;;36.47;;
4547;SDS011;2286;51.570;7.090;2023-04-29T03:25:38;57.60;;;37.50;;
4547;SDS011;2286;51.570;7.090;2023-04-29T03:28:04;57.07;;;36.27;;
4547;SDS011;2286;51.570;7.090;2023-04-29T03:30:31;54.33;;;34.13;;
4547;SDS011;2286;51.570;7.090;2023-04-29T03:32:59;57.37;;;36.30;;
4547;SDS011;2286;51.570;7.090;2023-04-29T03:35:26;49.13;;;32.60;;
4547;SDS011;2286;51.570;7.090;2023-04-29T03:37:54;52.20;;;34.93;;
4547;SDS011;2286;51.570;7.090;2023-04-29T03:40:21;54.60;;;35.70;;
4547;SDS011;2286;51.570;7.090;2023-04-29T03:42:47;52.67;;;34.87;;
4547;SDS011;2286;51.570;7.090;2023-04-29T03:45:14;52.27;;;34.93;;
4547;SDS011;2286;51.570;7.090;2023-04-29T03:47:41;57.73;;;35.30;;
4547;SDS011;2286;51.570;7.090;2023-04-29T03:50:08;54.77;;;37.07;;
4547;SDS011;2286;51.570;7.090;2023-04-29T03:52:36;55.60;;;37.33;;
4547;SDS011;2286;51.570;7.090;2023-04-29T03:55:04;59.80;;;37.37;;
4547;SDS011;2286;51.570;7.090;2023-04-29T03:57:31;60.63;;;38.27;;
4547;SDS011;2286;51.570;7.090;2023-04-29T03:59:58;56.93;;;37.57;;
4547;SDS011;2286;51.570;7.090;2023-04-29T04:02:25;50.33;;;35.90;;
4547;SDS011;2286;51.570;7.090;2023-04-29T04:04:52;48.57;;;33.90;;
4547;SDS011;2286;51.570;7.090;2023-04-29T04:07:19;51.13;;;36.90;;
4547;SDS011;2286;51.570;7.090;2023-04-29T04:09:46;51.40;;;34.37;;
4547;SDS011;2286;51.570;7.090;2023-04-29T04:12:14;51.80;;;36.10;;
4547;SDS011;2286;51.570;7.090;2023-04-29T04:14:41;46.27;;;35.10;;
4547;SDS011;2286;51.570;7.090;2023-04-29T04:17:08;48.23;;;34.70;;
4547;SDS011;2286;51.570;7.090;2023-04-29T04:19:35;46.07;;;34.00;;
4547;SDS011;2286;51.570;7.090;2023-04-29T04:22:02;40.60;;;31.70;;
4547;SDS011;2286;51.570;7.090;2023-04-29T04:24:29;45.53;;;32.77;;
4547;SDS011;2286;51.570;7.090;2023-04-29T04:26:56;46.57;;;34.53;;
4547;SDS011;2286;51.570;7.090;2023-04-29T04:29:24;50.37;;;36.60;;
4547;SDS011;2286;51.570;7.090;2023-04-29T04:31:51;46.83;;;36.50;;
4547;SDS011;2286;51.570;7.090;2023-04-29T04:34:17;51.03;;;37.30;;
4547;SDS011;2286;51.570;7.090;2023-04-29T04:36:44;44.73;;;35.70;;
4547;SDS011;2286;51.570;7.090;2023-04-29T04:39:11;44.40;;;34.57;;
4547;SDS011;2286;51.570;7.090;2023-04-29T04:41:38;40.97;;;32.57;;
4547;SDS011;2286;51.570;7.090;2023-04-29T04:44:04;44.47;;;35.27;;
4547;SDS011;2286;51.570;7.090;2023-04-29T04:46:33;43.70;;;33.23;;
4547;SDS011;2286;51.570;7.090;2023-04-29T04:49:01;44.00;;;33.27;;
4547;SDS011;2286;51.570;7.090;2023-04-29T04:51:27;40.10;;;31.00;;
4547;SDS011;2286;51.570;7.090;2023-04-29T04:53:54;44.57;;;31.13;;
4547;SDS011;2286;51.570;7.090;2023-04-29T04:56:21;42.70;;;34.23;;
4547;SDS011;2286;51.570;7.090;2023-04-29T04:58:48;43.87;;;33.83;;
4547;SDS011;2286;51.570;7.090;2023-04-29T05:01:14;43.90;;;33.50;;
4547;SDS011;2286;51.570;7.090;2023-04-29T05:03:42;41.20;;;32.23;;
4547;SDS011;2286;51.570;7.090;2023-04-29T05:06:09;48.60;;;36.57;;
4547;SDS011;2286;51.570;7.090;2023-04-29T05:08:36;42.40;;;34.00;;
4547;SDS011;2286;51.570;7.090;2023-04-29T05:11:03;45.83;;;34.90;;
4547;SDS011;2286;51.570;7.090;2023-04-29T05:13:31;42.73;;;34.57;;
4547;SDS011;2286;51.570;7.090;2023-04-29T05:16:01;40.00;;;34.80;;
4547;SDS011;2286;51.570;7.090;2023-04-29T05:18:28;42.70;;;34.30;;
4547;SDS011;2286;51.570;7.090;2023-04-29T05:20:56;41.80;;;33.90;;
4547;SDS011;2286;51.570;7.090;2023-04-29T05:23:24;44.27;;;34.73;;
4547;SDS011;2286;51.570;7.090;2023-04-29T05:25:50;47.23;;;35.73;;
4547;SDS011;2286;51.570;7.090;2023-04-29T05:28:17;43.53;;;35.67;;
4547;SDS011;2286;51.570;7.090;2023-04-29T05:30:44;44.40;;;32.77;;
4547;SDS011;2286;51.570;7.090;2023-04-29T05:33:11;45.97;;;36.83;;
4547;SDS011;2286;51.570;7.090;2023-04-29T05:35:38;41.93;;;33.00;;
4547;SDS011;2286;51.570;7.090;2023-04-29T05:38:06;37.57;;;32.70;;
4547;SDS011;2286;51.570;7.090;2023-04-29T05:40:33;44.40;;;33.60;;
4547;SDS011;2286;51.570;7.090;2023-04-29T05:43:00;36.27;;;32.10;;
4547;SDS011;2286;51.570;7.090;2023-04-29T05:45:27;35.67;;;30.60;;
4547;SDS011;2286;51.570;7.090;2023-04-29T05:47:53;36.13;;;31.23;;
4547;SDS011;2286;51.570;7.090;2023-04-29T05:50:20;35.83;;;31.93;;
4547;SDS011;2286;51.570;7.090;2023-04-29T05:52:47;37.87;;;32.00;;
4547;SDS011;2286;51.570;7.090;2023-04-29T05:55:15;39.43;;;32.00;;
4547;SDS011;2286;51.570;7.090;2023-04-29T05:57:42;36.70;;;30.30;;
4547;SDS011;2286;51.570;7.090;2023-04-29T06:00:09;34.10;;;30.40;;
4547;SDS011;2286;51.570;7.090;2023-04-29T06:02:37;38.80;;;30.67;;
4547;SDS011;2286;51.570;7.090;2023-04-29T06:05:07;35.90;;;30.23;;
4547;SDS011;2286;51.570;7.090;2023-04-29T06:07:34;35.23;;;29.63;;
4547;SDS011;2286;51.570;7.090;2023-04-29T06:10:01;30.97;;;27.67;;
4547;SDS011;2286;51.570;7.090;2023-04-29T06:12:29;32.60;;;27.77;;
4547;SDS011;2286;51.570;7.090;2023-04-29T06:14:56;32.67;;;29.10;;
4547;SDS011;2286;51.570;7.090;2023-04-29T06:17:23;34.30;;;29.20;;
4547;SDS011;2286;51.570;7.090;2023-04-29T06:19:53;33.13;;;29.03;;
4547;SDS011;2286;51.570;7.090;2023-04-29T06:22:20;30.63;;;27.53;;
4547;SDS011;2286;51.570;7.090;2023-04-29T06:24:47;32.13;;;28.77;;
4547;SDS011;2286;51.570;7.090;2023-04-29T06:27:14;32.73;;;29.23;;
4547;SDS011;2286;51.570;7.090;2023-04-29T06:29:42;30.90;;;27.60;;
4547;SDS011;2286;51.570;7.090;2023-04-29T06:32:09;32.83;;;29.30;;
4547;SDS011;2286;51.570;7.090;2023-04-29T06:34:37;34.00;;;29.90;;
4547;SDS011;2286;51.570;7.090;2023-04-29T06:37:04;38.50;;;31.70;;
4547;SDS011;2286;51.570;7.090;2023-04-29T06:39:31;40.17;;;30.90;;
4547;SDS011;2286;51.570;7.090;2023-04-29T06:41:58;35.30;;;30.13;;
4547;SDS011;2286;51.570;7.090;2023-04-29T06:44:25;36.57;;;31.03;;
4547;SDS011;2286;51.570;7.090;2023-04-29T06:46:54;36.37;;;31.13;;
4547;SDS011;2286;51.570;7.090;2023-04-29T06:49:21;43.17;;;31.47;;
4547;SDS011;2286;51.570;7.090;2023-04-29T06:51:47;34.83;;;30.60;;
4547;SDS011;2286;51.570;7.090;2023-04-29T06:54:14;41.53;;;32.97;;
4547;SDS011;2286;51.570;7.090;2023-04-29T06:56:41;36.80;;;31.90;;
4547;SDS011;2286;51.570;7.090;2023-04-29T06:59:08;42.10;;;33.20;;
4547;SDS011;2286;51.570;7.090;2023-04-29T07:01:36;40.97;;;32.90;;
4547;SDS011;2286;51.570;7.090;2023-04-29T07:04:05;35.67;;;31.87;;
4547;SDS011;2286;51.570;7.090;2023-04-29T07:06:32;35.80;;;31.87;;
4547;SDS011;2286;51.570;7.090;2023-04-29T07:08:59;38.03;;;32.27;;
4547;SDS011;2286;51.570;7.090;2023-04-29T07:11:26;39.87;;;33.60;;
4547;SDS011;2286;51.570;7.090;2023-04-29T07:13:53;40.67;;;33.53;;
4547;SDS011;2286;51.570;7.090;2023-04-29T07:16:19;37.17;;;32.67;;
4547;SDS011;2286;51.570;7.090;2023-04-29T07:18:50;39.63;;;32.93;;
4547;SDS011;2286;51.570;7.090;2023-04-29T07:21:18;41.23;;;33.47;;
4547;SDS011;2286;51.570;7.090;2023-04-29T07:23:45;42.23;;;36.17;;
4547;SDS011;2286;51.570;7.090;2023-04-29T07:26:12;38.20;;;33.97;;
4547;SDS011;2286;51.570;7.090;2023-04-29T07:28:40;41.23;;;34.67;;
4547;SDS011;2286;51.570;7.090;2023-04-29T07:31:07;43.53;;;34.77;;
4547;SDS011;2286;51.570;7.090;2023-04-29T07:33:35;40.60;;;33.37;;
4547;SDS011;2286;51.570;7.090;2023-04-29T07:36:01;46.27;;;34.40;;
4547;SDS011;2286;51.570;7.090;2023-04-29T07:38:30;38.33;;;34.03;;
4547;SDS011;2286;51.570;7.090;2023-04-29T07:40:56;43.43;;;35.50;;
4547;SDS011;2286;51.570;7.090;2023-04-29T07:43:23;42.20;;;34.57;;
4547;SDS011;2286;51.570;7.090;2023-04-29T07:45:50;48.20;;;34.17;;
4547;SDS011;2286;51.570;7.090;2023-04-29T07:48:17;47.37;;;34.13;;
4547;SDS011;2286;51.570;7.090;2023-04-29T07:50:45;38.10;;;32.67;;
4547;SDS011;2286;51.570;7.090;2023-04-29T07:53:12;41.47;;;34.77;;
4547;SDS011;2286;51.570;7.090;2023-04-29T07:55:41;43.33;;;34.30;;
4547;SDS011;2286;51.570;7.090;2023-04-29T07:58:07;45.43;;;36.07;;
4547;SDS011;2286;51.570;7.090;2023-04-29T08:00:34;36.67;;;32.67;;
4547;SDS011;2286;51.570;7.090;2023-04-29T08:03:01;41.23;;;35.20;;
4547;SDS011;2286;51.570;7.090;2023-04-29T08:05:28;44.50;;;35.00;;
4547;SDS011;2286;51.570;7.090;2023-04-29T08:07:55;39.77;;;33.40;;
4547;SDS011;2286;51.570;7.090;2023-04-29T08:10:22;43.80;;;33.20;;
4547;SDS011;2286;51.570;7.090;2023-04-29T08:12:50;43.77;;;34.37;;
4547;SDS011;2286;51.570;7.090;2023-04-29T08:15:17;42.90;;;34.10;;
4547;SDS011;2286;51.570;7.090;2023-04-29T08:17:44;41.83;;;34.63;;
4547;SDS011;2286;51.570;7.090;2023-04-29T08:20:11;43.43;;;34.03;;
4547;SDS011;2286;51.570;7.090;2023-04-29T08:22:39;44.13;;;36.50;;
4547;SDS011;2286;51.570;7.090;2023-04-29T08:25:07;41.47;;;33.90;;
4547;SDS011;2286;51.570;7.090;2023-04-29T08:27:34;48.87;;;34.70;;
4547;SDS011;2286;51.570;7.090;2023-04-29T08:30:02;48.07;;;34.47;;
4547;SDS011;2286;51.570;7.090;2023-04-29T08:32:30;42.80;;;33.23;;
4547;SDS011;2286;51.570;7.090;2023-04-29T08:34:58;46.57;;;34.67;;
4547;SDS011;2286;51.570;7.090;2023-04-29T08:37:25;41.40;;;33.67;;
4547;SDS011;2286;51.570;7.090;2023-04-29T08:39:52;41.50;;;33.97;;
4547;SDS011;2286;51.570;7.090;2023-04-29T08:42:19;43.17;;;34.60;;
4547;SDS011;2286;51.570;7.090;2023-04-29T08:44:58;40.60;;;33.90;;
4547;SDS011;2286;51.570;7.090;2023-04-29T08:47:26;41.33;;;33.43;;
4547;SDS011;2286;51.570;7.090;2023-04-29T08:49:55;39.07;;;32.60;;
4547;SDS011;2286;51.570;7.090;2023-04-29T08:52:23;41.47;;;32.80;;
4547;SDS011;2286;51.570;7.090;2023-04-29T08:54:50;38.13;;;32.60;;
4547;SDS011;2286;51.570;7.090;2023-04-29T08:57:17;42.43;;;33.40;;
4547;SDS011;2286;51.570;7.090;2023-04-29T08:59:45;38.53;;;32.43;;
4547;SDS011;2286;51.570;7.090;2023-04-29T09:02:12;37.57;;;32.63;;
4547;SDS011;2286;51.570;7.090;2023-04-29T09:04:45;37.83;;;32.97;;
4547;SDS011;2286;51.570;7.090;2023-04-29T09:07:18;37.00;;;32.17;;
4547;SDS011;2286;51.570;7.090;2023-04-29T09:09:45;41.63;;;33.10;;
4547;SDS011;2286;51.570;7.090;2023-04-29T09:12:12;40.53;;;32.83;;
4547;SDS011;2286;51.570;7.090;2023-04-29T09:14:39;41.17;;;31.47;;
4547;SDS011;2286;51.570;7.090;2023-04-29T09:17:06;35.37;;;30.60;;
4547;SDS011;2286;51.570;7.090;2023-04-29T09:19:33;39.00;;;32.03;;
4547;SDS011;2286;51.570;7.090;2023-04-29T09:22:03;38.90;;;31.93;;
4547;SDS011;2286;51.570;7.090;2023-04-29T09:24:31;38.13;;;31.83;;
4547;SDS011;2286;51.570;7.090;2023-04-29T09:26:58;32.93;;;28.70;;
4547;SDS011;2286;51.570;7.090;2023-04-29T09:29:25;32.43;;;29.13;;
4547;SDS011;2286;51.570;7.090;2023-04-29T09:31:52;36.10;;;29.70;;
4547;SDS011;2286;51.570;7.090;2023-04-29T09:34:29;36.37;;;30.10;;
4547;SDS011;2286;51.570;7.090;2023-04-29T09:36:57;31.93;;;28.63;;
4547;SDS011;2286;51.570;7.090;2023-04-29T09:39:25;36.10;;;30.10;;
4547;SDS011;2286;51.570;7.090;2023-04-29T09:41:59;33.73;;;29.63;;
4547;SDS011;2286;51.570;7.090;2023-04-29T09:44:27;31.50;;;28.20;;
4547;SDS011;2286;51.570;7.090;2023-04-29T09:46:56;33.50;;;28.37;;
4547;SDS011;2286;51.570;7.090;2023-04-29T09:49:24;30.97;;;27.57;;
4547;SDS011;2286;51.570;7.090;2023-04-29T09:51:52;33.30;;;29.90;;
4547;SDS011;2286;51.570;7.090;2023-04-29T09:54:19;33.93;;;29.73;;
4547;SDS011;2286;51.570;7.090;2023-04-29T09:56:49;31.07;;;27.80;;
4547;SDS011;2286;51.570;7.090;2023-04-29T09:59:17;31.30;;;28.10;;
4547;SDS011;2286;51.570;7.090;2023-04-29T10:01:45;28.27;;;25.23;;
4547;SDS011;2286;51.570;7.090;2023-04-29T10:04:15;27.40;;;24.67;;
4547;SDS011;2286;51.570;7.090;2023-04-29T10:06:43;30.40;;;25.57;;
4547;SDS011;2286;51.570;7.090;2023-04-29T10:09:12;27.93;;;25.13;;
4547;SDS011;2286;51.570;7.090;2023-04-29T10:11:41;26.77;;;23.97;;
4547;SDS011;2286;51.570;7.090;2023-04-29T10:14:11;26.80;;;23.97;;
4547;SDS011;2286;51.570;7.090;2023-04-29T10:16:44;29.27;;;26.03;;
4547;SDS011;2286;51.570;7.090;2023-04-29T10:19:14;26.53;;;23.90;;
4547;SDS011;2286;51.570;7.090;2023-04-29T10:21:44;27.70;;;25.07;;
4547;SDS011;2286;51.570;7.090;2023-04-29T10:24:15;26.37;;;23.70;;
4547;SDS011;2286;51.570;7.090;2023-04-29T10:26:44;25.37;;;23.00;;
4547;SDS011;2286;51.570;7.090;2023-04-29T10:29:15;24.50;;;21.97;;
4547;SDS011;2286;51.570;7.090;2023-04-29T10:31:42;25.23;;;22.57;;
4547;SDS011;2286;51.570;7.090;2023-04-29T10:34:11;21.90;;;19.60;;
4547;SDS011;2286;51.570;7.090;2023-04-29T10:36:39;23.27;;;20.77;;
4547;SDS011;2286;51.570;7.090;2023-04-29T10:39:07;23.00;;;20.80;;
4547;SDS011;2286;51.570;7.090;2023-04-29T10:41:41;22.77;;;20.37;;
4547;SDS011;2286;51.570;7.090;2023-04-29T10:44:11;21.47;;;19.07;;
4547;SDS011;2286;51.570;7.090;2023-04-29T10:46:39;23.07;;;20.77;;
4547;SDS011;2286;51.570;7.090;2023-04-29T10:49:06;24.00;;;20.13;;
4547;SDS011;2286;51.570;7.090;2023-04-29T10:51:33;21.67;;;19.40;;
4547;SDS011;2286;51.570;7.090;2023-04-29T10:54:08;20.03;;;18.13;;
4547;SDS011;2286;51.570;7.090;2023-04-29T10:56:38;20.00;;;17.87;;
4547;SDS011;2286;51.570;7.090;2023-04-29T10:59:08;19.63;;;17.73;;
4547;SDS011;2286;51.570;7.090;2023-04-29T11:01:45;20.60;;;18.63;;
4547;SDS011;2286;51.570;7.090;2023-04-29T11:04:13;20.97;;;19.00;;
4547;SDS011;2286;51.570;7.090;2023-04-29T11:06:41;20.20;;;18.30;;
4547;SDS011;2286;51.570;7.090;2023-04-29T11:09:12;23.30;;;21.00;;
4547;SDS011;2286;51.570;7.090;2023-04-29T11:11:41;20.40;;;18.17;;
4547;SDS011;2286;51.570;7.090;2023-04-29T11:14:08;28.50;;;18.93;;
4547;SDS011;2286;51.570;7.090;2023-04-29T11:16:36;17.73;;;15.83;;
4547;SDS011;2286;51.570;7.090;2023-04-29T11:19:05;19.17;;;17.33;;
4547;SDS011;2286;51.570;7.090;2023-04-29T11:21:33;18.40;;;16.70;;
4547;SDS011;2286;51.570;7.090;2023-04-29T11:24:00;15.63;;;14.20;;
4547;SDS011;2286;51.570;7.090;2023-04-29T11:26:30;20.80;;;17.60;;
4547;SDS011;2286;51.570;7.090;2023-04-29T11:28:57;17.80;;;16.20;;
4547;SDS011;2286;51.570;7.090;2023-04-29T11:31:25;17.83;;;16.23;;
4547;SDS011;2286;51.570;7.090;2023-04-29T11:33:53;16.27;;;14.87;;
4547;SDS011;2286;51.570;7.090;2023-04-29T11:36:22;17.50;;;15.90;;
4547;SDS011;2286;51.570;7.090;2023-04-29T11:38:49;16.03;;;14.70;;
4547;SDS011;2286;51.570;7.090;2023-04-29T11:41:15;15.57;;;14.23;;
4547;SDS011;2286;51.570;7.090;2023-04-29T11:43:44;15.57;;;14.07;;
4547;SDS011;2286;51.570;7.090;2023-04-29T11:46:12;14.70;;;13.30;;
4547;SDS011;2286;51.570;7.090;2023-04-29T11:48:44;14.43;;;13.23;;
4547;SDS011;2286;51.570;7.090;2023-04-29T11:51:12;14.80;;;13.43;;
4547;SDS011;2286;51.570;7.090;2023-04-29T11:53:41;13.60;;;11.90;;
4547;SDS011;2286;51.570;7.090;2023-04-29T11:56:08;20.87;;;18.73;;
4547;SDS011;2286;51.570;7.090;2023-04-29T11:58:36;15.23;;;13.93;;
4547;SDS011;2286;51.570;7.090;2023-04-29T12:01:03;14.63;;;13.33;;
4547;SDS011;2286;51.570;7.090;2023-04-29T12:03:30;12.50;;;11.20;;
4547;SDS011;2286;51.570;7.090;2023-04-29T12:05:57;13.40;;;12.07;;
4547;SDS011;2286;51.570;7.090;2023-04-29T12:08:25;11.47;;;10.47;;
4547;SDS011;2286;51.570;7.090;2023-04-29T12:10:54;12.13;;;11.03;;
4547;SDS011;2286;51.570;7.090;2023-04-29T12:13:22;11.67;;;10.57;;
4547;SDS011;2286;51.570;7.090;2023-04-29T12:15:51;11.80;;;10.70;;
4547;SDS011;2286;51.570;7.090;2023-04-29T12:18:18;11.30;;;10.03;;
4547;SDS011;2286;51.570;7.090;2023-04-29T12:20:47;11.03;;;10.03;;
4547;SDS011;2286;51.570;7.090;2023-04-29T12:23:16;12.70;;;10.90;;
4547;SDS011;2286;51.570;7.090;2023-04-29T12:25:46;11.93;;;10.70;;
4547;SDS011;2286;51.570;7.090;2023-04-29T12:28:16;13.33;;;12.07;;
4547;SDS011;2286;51.570;7.090;2023-04-29T12:30:44;11.90;;;10.73;;
4547;SDS011;2286;51.570;7.090;2023-04-29T12:33:14;12.20;;;10.77;;
4547;SDS011;2286;51.570;7.090;2023-04-29T12:35:45;10.87;;;9.80;;
4547;SDS011;2286;51.570;7.090;2023-04-29T12:38:14;10.67;;;9.67;;
4547;SDS011;2286;51.570;7.090;2023-04-29T12:40:42;10.80;;;9.87;;
4547;SDS011;2286;51.570;7.090;2023-04-29T12:43:10;10.73;;;9.80;;
4547;SDS011;2286;51.570;7.090;2023-04-29T12:45:38;11.90;;;10.70;;
4547;SDS011;2286;51.570;7.090;2023-04-29T12:48:05;10.93;;;9.87;;
4547;SDS011;2286;51.570;7.090;2023-04-29T12:50:33;11.37;;;10.47;;
4547;SDS011;2286;51.570;7.090;2023-04-29T12:53:01;12.13;;;10.70;;
4547;SDS011;2286;51.570;7.090;2023-04-29T12:55:30;10.93;;;9.83;;
4547;SDS011;2286;51.570;7.090;2023-04-29T12:57:59;10.87;;;9.97;;
4547;SDS011;2286;51.570;7.090;2023-04-29T13:00:26;10.27;;;9.27;;
4547;SDS011;2286;51.570;7.090;2023-04-29T13:02:54;12.47;;;11.20;;
4547;SDS011;2286;51.570;7.090;2023-04-29T13:05:21;12.33;;;11.23;;
4547;SDS011;2286;51.570;7.090;2023-04-29T13:07:48;13.77;;;10.07;;
4547;SDS011;2286;51.570;7.090;2023-04-29T13:10:15;11.70;;;10.70;;
4547;SDS011;2286;51.570;7.090;2023-04-29T13:12:41;12.17;;;10.87;;
4547;SDS011;2286;51.570;7.090;2023-04-29T13:15:09;11.30;;;10.20;;
4547;SDS011;2286;51.570;7.090;2023-04-29T13:17:36;10.57;;;9.57;;
4547;SDS011;2286;51.570;7.090;2023-04-29T13:20:05;12.00;;;10.27;;
4547;SDS011;2286;51.570;7.090;2023-04-29T13:22:33;11.23;;;10.20;;
4547;SDS011;2286;51.570;7.090;2023-04-29T13:25:01;11.30;;;9.73;;
4547;SDS011;2286;51.570;7.090;2023-04-29T13:27:28;9.77;;;8.87;;
4547;SDS011;2286;51.570;7.090;2023-04-29T13:29:55;10.07;;;9.17;;
4547;SDS011;2286;51.570;7.090;2023-04-29T13:32:22;11.17;;;10.03;;
4547;SDS011;2286;51.570;7.090;2023-04-29T13:34:49;11.33;;;10.20;;
4547;SDS011;2286;51.570;7.090;2023-04-29T13:37:18;10.53;;;9.50;;
4547;SDS011;2286;51.570;7.090;2023-04-29T13:39:44;10.13;;;9.20;;
4547;SDS011;2286;51.570;7.090;2023-04-29T13:42:11;10.50;;;9.50;;
4547;SDS011;2286;51.570;7.090;2023-04-29T13:44:38;10.83;;;9.73;;
4547;SDS011;2286;51.570;7.090;2023-04-29T13:47:08;10.77;;;9.87;;
4547;SDS011;2286;51.570;7.090;2023-04-29T13:49:36;10.70;;;9.67;;
4547;SDS011;2286;51.570;7.090;2023-04-29T13:52:03;11.50;;;10.60;;
4547;SDS011;2286;51.570;7.090;2023-04-29T13:54:31;10.53;;;8.97;;
4547;SDS011;2286;51.570;7.090;2023-04-29T13:56:58;11.53;;;10.43;;
4547;SDS011;2286;51.570;7.090;2023-04-29T13:59:28;10.00;;;8.90;;
4547;SDS011;2286;51.570;7.090;2023-04-29T14:01:56;10.50;;;9.50;;
4547;SDS011;2286;51.570;7.090;2023-04-29T14:04:22;10.13;;;9.30;;
4547;SDS011;2286;51.570;7.090;2023-04-29T14:06:49;9.83;;;8.93;;
4547;SDS011;2286;51.570;7.090;2023-04-29T14:09:16;10.00;;;9.10;;
4547;SDS011;2286;51.570;7.090;2023-04-29T14:11:46;11.20;;;10.20;;
4547;SDS011;2286;51.570;7.090;2023-04-29T14:14:13;9.90;;;9.00;;
4547;SDS011;2286;51.570;7.090;2023-04-29T14:16:40;10.70;;;9.90;;
4547;SDS011;2286;51.570;7.090;2023-04-29T14:19:07;11.97;;;10.87;;
4547;SDS011;2286;51.570;7.090;2023-04-29T14:21:35;9.07;;;7.97;;
4547;SDS011;2286;51.570;7.090;2023-04-29T14:24:02;9.03;;;8.13;;
4547;SDS011;2286;51.570;7.090;2023-04-29T14:26:29;8.67;;;7.87;;
4547;SDS011;2286;51.570;7.090;2023-04-29T14:28:58;9.87;;;8.97;;
4547;SDS011;2286;51.570;7.090;2023-04-29T14:31:25;9.13;;;7.40;;
4547;SDS011;2286;51.570;7.090;2023-04-29T14:33:52;11.83;;;7.80;;
4547;SDS011;2286;51.570;7.090;2023-04-29T14:36:19;8.17;;;7.43;;
4547;SDS011;2286;51.570;7.090;2023-04-29T14:38:46;8.17;;;7.37;;
4547;SDS011;2286;51.570;7.090;2023-04-29T14:41:13;8.70;;;7.90;;
4547;SDS011;2286;51.570;7.090;2023-04-29T14:43:40;8.70;;;7.83;;
4547;SDS011;2286;51.570;7.090;2023-04-29T14:46:08;7.87;;;7.07;;
4547;SDS011;2286;51.570;7.090;2023-04-29T14:48:35;7.10;;;6.50;;
4547;SDS011;2286;51.570;7.090;2023-04-29T14:51:02;7.83;;;7.13;;
4547;SDS011;2286;51.570;7.090;2023-04-29T14:53:30;8.60;;;7.70;;
4547;SDS011;2286;51.570;7.090;2023-04-29T14:55:57;10.10;;;8.07;;